Flight Track Log - Related Links

Times and Time Zones

All times are in EDT time to prevent confusion due to time zone crossing. See the SWA2327 flight status page for this flight to view local times or setup timezone preferences in your user account.

Time Position Orientation Groundspeed Altitude Reporting Facility
EDT Latitude Longitude Course Direction KTS MPH feet Rate Location/Type
Sat 01:36:17 PM 39.3583 -119.7683 179° South 269 310 10,700  Level Oakland Center
Sat 01:37:18 PM 39.2844 -119.7219 154° Southeast 341 392 14,600 3,393 Climbing Oakland Center
Sat 01:38:19 PM 39.2200 -119.6275 131° Southeast 346 398 17,600 3,171 Climbing Oakland Center
Sat 01:39:21 PM 39.1444 -119.5308 135° Southeast 375 432 21,100 2,634 Climbing Oakland Center
Sat 01:40:00 PM 38.9664 -119.2997 142° Southeast  Level FlightAware Approximate
Sat 01:40:22 PM 39.0639 -119.4303 136° Southeast 401 461 23,000  Level Oakland Center
Sat 01:41:23 PM 38.9803 -119.3272 136° Southeast 414 476 24,200 1,902 Climbing Oakland Center
Sat 01:42:25 PM 38.8958 -119.2225 136° Southeast 423 487 26,900 2,634 Climbing Oakland Center
Sat 01:43:26 PM 38.7894 -119.0914 136° Southeast 441 507 29,600 2,244 Climbing Oakland Center
Sat 01:44:28 PM 38.6975 -118.9803 137° Southeast 455 524 31,500 1,854 Climbing Oakland Center
Sat 01:45:29 PM 38.6022 -118.8622 136° Southeast 474 545 33,400 2,016 Climbing Oakland Center
Sat 01:46:30 PM 38.5056 -118.7469 137° Southeast 476 548 35,600 2,293 Climbing Oakland Center
Sat 01:47:32 PM 38.4125 -118.6328 136° Southeast 471 542 38,100 2,049 Climbing Oakland Center
Sat 01:48:33 PM 38.3222 -118.5233 136° Southeast 457 526 39,800 1,328 Climbing Oakland Center
Sat 01:49:34 PM 38.2317 -118.4142 137° Southeast 451 519 40,800 585 Climbing Oakland Center
Sat 01:50:36 PM 38.1386 -118.3047 137° Southeast 452 520 41,000 98 Climbing Oakland Center
Sat 01:51:37 PM 38.0342 -118.1808 137° Southeast 457 526 41,000  Level Oakland Center
Sat 01:52:39 PM 37.9431 -118.0714 137° Southeast 457 526 41,000  Level Oakland Center
Sat 01:53:40 PM 37.8503 -117.9619 137° Southeast 457 526 41,000  Level Oakland Center
Sat 01:54:41 PM 37.7589 -117.8550 137° Southeast 455 524 41,000  Level Oakland Center
Sat 01:55:43 PM 37.6686 -117.7475 137° Southeast 453 521 41,000  Level Oakland Center
Sat 01:56:44 PM 37.5589 -117.6200 137° Southeast 452 520 41,000  Level Oakland Center
Sat 01:57:45 PM 37.4661 -117.5133 138° Southeast 452 520 41,000  Level Oakland Center
Sat 01:58:47 PM 37.3736 -117.4036 137° Southeast 455 524 41,000  Level Oakland Center
Sat 01:59:48 PM 37.2803 -117.2969 138° Southeast 456 525 41,000  Level Oakland Center
Sat 02:00:50 PM 37.1867 -117.1892 137° Southeast 457 526 41,000  Level Oakland Center
Sat 02:01:51 PM 37.0911 -117.0806 138° Southeast 463 533 41,000  Level Oakland Center
Sat 02:02:52 PM 36.9961 -116.9719 138° Southeast 464 534 41,000 -537 Level Oakland Center
Sat 02:03:54 PM 36.9019 -116.8636 137° Southeast 460 529 39,900 -976 Descending Oakland Center
Sat 02:04:55 PM 36.7942 -116.7317 136° Southeast 455 524 39,000 -439 Descending Oakland Center
Sat 02:05:57 PM 36.7328 -116.5947 119° Southeast 454 522 39,000  Level Oakland Center
Sat 02:06:58 PM 36.6708 -116.4561 119° Southeast 454 522 39,000  Level Oakland Center
Sat 02:07:59 PM 36.6100 -116.3181 119° Southeast 454 522 39,000  Level Oakland Center
Sat 02:09:30 PM 36.5228 -116.1247 119° Southeast 456 525 39,000  Level Los Angeles Center
Sat 02:10:32 PM 36.4492 -115.9631 119° Southeast 452 520 39,000  Level Los Angeles Center
Sat 02:11:34 PM 36.3869 -115.8261 119° Southeast 448 516 39,000  Level Los Angeles Center
Sat 02:12:36 PM 36.3264 -115.6953 120° Southeast 445 512 39,000  Level Los Angeles Center
Sat 02:13:38 PM 36.2689 -115.5667 119° Southeast 445 512 39,000  Level Los Angeles Center
Sat 02:14:40 PM 36.1972 -115.4103 120° Southeast 443 510 39,000  Level Los Angeles Center
Sat 02:16:44 PM 36.0731 -115.1422 120° Southeast 455 524 39,000  Level Los Angeles Center
Sat 02:17:46 PM 36.0117 -115.0100 120° Southeast 446 513 39,000 -240 Level Los Angeles Center
Sat 02:18:49 PM 35.9492 -114.8786 120° Southeast 442 509 38,500 -720 Descending Los Angeles Center
Sat 02:19:51 PM 35.8881 -114.7456 120° Southeast 442 509 37,500 -484 Descending Los Angeles Center
Sat 02:21:55 PM 35.7497 -114.4531 121° Southeast 450 518 37,000 -226 Descending Los Angeles Center
Sat 02:22:57 PM 35.6869 -114.3206 120° Southeast 450 518 36,800 -581 Descending Los Angeles Center
Sat 02:23:59 PM 35.6239 -114.1869 120° Southeast 460 529 35,800 -968 Descending Los Angeles Center
Sat 02:25:01 PM 35.5594 -114.0531 121° Southeast 453 521 34,800 -1,016 Descending Los Angeles Center
Sat 02:26:03 PM 35.4856 -113.9031 121° Southeast 441 507 33,700 -960 Descending Los Angeles Center
Sat 02:27:06 PM 35.4175 -113.7761 123° Southeast 445 512 32,800 -1,440 Descending Los Angeles Center
Sat 02:28:08 PM 35.3494 -113.6511 124° Southeast 445 512 30,700 -1,839 Descending Los Angeles Center
Sat 02:29:10 PM 35.2836 -113.5300 124° Southeast 437 503 29,000 -823 Descending Los Angeles Center
Sat 02:30:12 PM 35.2178 -113.4097 124° Southeast 434 499 29,000  Level Los Angeles Center
Sat 02:31:14 PM 35.1378 -113.2653 124° Southeast 433 498 29,000  Level Los Angeles Center
Sat 02:31:45 PM 35.1117 -113.2169 123° Southeast 435 501 29,000  Level Albuquerque Center
Sat 02:32:47 PM 35.0506 -113.1031 123° Southeast 414 476 29,000  Level Albuquerque Center
Sat 02:33:48 PM 34.9733 -112.9669 125° Southeast 411 473 29,000  Level Albuquerque Center
Sat 02:34:50 PM 34.9125 -112.8547 123° Southeast 408 470 29,000 -98 Level Albuquerque Center
Sat 02:35:51 PM 34.8500 -112.7442 125° Southeast 405 466 28,800 -1,033 Descending Albuquerque Center
Sat 02:36:52 PM 34.7897 -112.6347 124° Southeast 397 457 26,900 -1,951 Descending Albuquerque Center
Sat 02:37:54 PM 34.7311 -112.5319 125° Southeast 385 443 24,800 -2,098 Descending Albuquerque Center
Sat 02:38:55 PM 34.6564 -112.4522 139° Southeast 375 432 22,600 -2,439 Descending Albuquerque Center
Sat 02:39:57 PM 34.5461 -112.3928 156° South 366 421 19,800 -2,390 Descending Albuquerque Center
Sat 02:40:58 PM 34.4553 -112.3414 155° Southeast 364 419 17,700 -1,561 Descending Albuquerque Center
Sat 02:42:00 PM 34.3686 -112.2931 155° Southeast 357 411 16,600 -1,073 Descending Albuquerque Center
Sat 02:43:01 PM 34.2872 -112.2478 155° Southeast 338 389 15,500 -984 Descending Albuquerque Center
Sat 02:44:02 PM 34.2075 -112.2031 155° Southeast 325 374 14,600 -976 Descending Albuquerque Center
Sat 02:45:04 PM 34.1278 -112.1600 156° South 319 367 13,500 -976 Descending Albuquerque Center
Sat 02:46:05 PM 34.0481 -112.1392 168° South 301 346 12,600 -1,268 Descending Albuquerque Center
Sat 02:47:07 PM 33.9681 -112.1486 186° South 294 338 10,900 -1,122 Descending Albuquerque Center
Sat 02:48:08 PM 33.8811 -112.1611 187° South 260 299 10,300 -878 Descending Albuquerque Center
Sat 02:49:10 PM 33.8172 -112.1747 190° South 240 276 9,100 -1,122 Descending Albuquerque Center
Sat 02:50:11 PM 33.7522 -112.1886 190° South 240 276 8,000 -537 Descending Albuquerque Center
Sat 02:51:13 PM 33.6875 -112.2019 190° South 239 275 8,000 -439 Level Albuquerque Center
Sat 02:52:14 PM 33.6219 -112.2161 190° South 239 275 7,100 -934 Descending Albuquerque Center
Sat 02:53:15 PM 33.5556 -112.2300 190° South 240 276 6,100 -1,024 Descending Albuquerque Center
Sat 02:54:17 PM 33.4922 -112.2389 187° South 232 267 5,000 -1,512 Descending Albuquerque Center
Sat 02:55:18 PM 33.4339 -112.1853 143° Southeast 223 257 3,000 -1,171 Descending Albuquerque Center
Sat 02:56:20 PM 33.4311 -112.1197 93° East 196 226 2,600 -537 Descending Albuquerque Center
Sat 02:57:21 PM 33.4314 -112.0725 90° East 146 168 1,900 -683 Descending Albuquerque Center
Sat 02:58:23 PM 33.4314 -112.0278 90° East 139 160 1,200 -677 Descending Albuquerque Center

Login

Don't have an account? Register now (free) for customized features, flight alerts, and more!